Bluefin — A8WR8 — position and weather

sailwx.info

Track history (hours):
 
Tides and Currents Weather Stations Pressure Air Temp Water Temp Dewpoint Dewpoint Depression Visibility Wind Speed Wind Dir Waves Ship Positions

Bluefin

Last reported at 2018-Feb-02 07:51 UTC. Time now 2018-Feb-18 03:26 UTC.
Position S 05°13' E 010°46'.
Warning: this ship's position is 15 days out of date.

Length 145 m; draft 8.3 m.

Type: Ship. MMSI: 636014814.

Date/timePositionNaut miles runAvg speedWind from/ knotsBaromVisibWave heightAir tempDewpointWater temp
2018-Feb-02 07:51S 05°13' E 010°46'  
2018-Jan-28 07:27S 05°04' E 010°55'0 0.4
2018-Jan-28 07:00S 05°05' E 010°55'0 0.4
2018-Jan-28 06:27S 05°05' E 010°55'5 0.5
2018-Jan-27 20:32S 05°09' E 010°53'0 0.7
2018-Jan-27 20:28S 05°09' E 010°53'1 0.7
2018-Jan-27 19:42S 05°09' E 010°52'0 0.7
2018-Jan-27 19:29S 05°10' E 010°52'3 0.5
2018-Jan-27 13:42S 05°12' E 010°51'4 1.3
2018-Jan-27 10:32S 05°09' E 010°49'  
Track history (hours):
 
Tides and Currents Weather Stations Pressure Air Temp Water Temp Dewpoint Dewpoint Depression Visibility Wind Speed Wind Dir Waves Ship Positions

Bluefin

Last reported at 2018-Feb-02 07:51 UTC. Time now 2018-Feb-18 03:26 UTC.
Position S 05°13' E 010°46'.
Warning: this ship's position is 15 days out of date.

Length 145 m; draft 8.3 m.

Type: Ship. MMSI: 636014814.

Date/timePositionNaut miles runAvg speedWind from/ knotsBaromVisibWave heightAir tempDewpointWater temp
2018-Feb-02 07:51S 05°13' E 010°46'  
2018-Jan-28 07:27S 05°04' E 010°55'0 0.4
2018-Jan-28 07:00S 05°05' E 010°55'0 0.4
2018-Jan-28 06:27S 05°05' E 010°55'5 0.5
2018-Jan-27 20:32S 05°09' E 010°53'0 0.7
2018-Jan-27 20:28S 05°09' E 010°53'1 0.7
2018-Jan-27 19:42S 05°09' E 010°52'0 0.7
2018-Jan-27 19:29S 05°10' E 010°52'3 0.5
2018-Jan-27 13:42S 05°12' E 010°51'4 1.3
2018-Jan-27 10:32S 05°09' E 010°49'  

Dump ship's entire track history